Time;durP1;ratioP1;P1;durP2;ratioP2;P2;SDS_P1;SDS_P2;PMS_P1;PMS_P2;Temp;Humidity;BMP_temperature;BMP_pressure;BME280_temperature;BME280_humidity;BME280_pressure;Samples;Min_cycle;Max_cycle;Signal;HPM_P1;HPM_P2
2022/04/21 00:00:34;;;;;;;8.20;4.05;;;9.70;99.90;;;;;;4981301;28;20065;-79
2022/04/21 00:03:00;;;;;;;8.48;4.68;;;9.60;99.90;;;;;;4960396;28;20060;-79
2022/04/21 00:05:26;;;;;;;9.68;4.90;;;9.60;99.90;;;;;;4992036;28;20782;-79
2022/04/21 00:07:53;;;;;;;9.60;5.05;;;9.60;99.90;;;;;;4974661;28;20133;-79
2022/04/21 00:10:19;;;;;;;8.98;4.55;;;9.50;99.90;;;;;;4976029;28;20053;-79
2022/04/21 00:12:45;;;;;;;8.90;4.82;;;9.50;99.90;;;;;;4991322;28;20046;-79
2022/04/21 00:15:11;;;;;;;10.52;4.68;;;9.40;99.90;;;;;;4959167;28;20467;-79
2022/04/21 00:17:38;;;;;;;8.60;4.72;;;9.30;99.90;;;;;;4991184;28;20060;-79
2022/04/21 00:20:04;;;;;;;10.90;4.78;;;9.10;99.90;;;;;;4992057;28;20053;-79
2022/04/21 00:25:14;;;;;;;9.50;5.05;;;9.10;99.90;;;;;;4978153;28;20045;-79
2022/04/21 00:27:42;;;;;;;11.52;4.78;;;9.00;99.90;;;;;;4971476;28;20570;-79
2022/04/21 00:30:08;;;;;;;8.82;4.70;;;9.00;99.90;;;;;;4971833;28;20052;-79
2022/04/21 00:32:35;;;;;;;9.38;4.80;;;8.90;99.90;;;;;;4972239;28;20097;-79
2022/04/21 00:35:02;;;;;;;8.63;4.75;;;8.90;99.90;;;;;;4972103;28;20064;-79
2022/04/21 00:37:28;;;;;;;10.38;5.20;;;8.90;99.90;;;;;;4972008;28;20073;-79
2022/04/21 00:39:54;;;;;;;;;;;8.90;99.90;;;;;;4956491;28;20062;-79
2022/04/21 00:42:20;;;;;;;9.32;4.40;;;8.80;99.90;;;;;;4975280;28;19925;-79
2022/04/21 00:44:46;;;;;;;10.02;4.90;;;8.80;99.90;;;;;;4974080;28;20050;-79
2022/04/21 00:47:13;;;;;;;11.02;4.72;;;8.80;99.90;;;;;;4975315;28;20081;-79
2022/04/21 00:49:40;;;;;;;9.82;4.90;;;8.70;99.90;;;;;;4975167;28;20049;-79
2022/04/21 00:52:07;;;;;;;9.77;4.97;;;8.60;99.90;;;;;;4991711;28;20133;-79
2022/04/21 00:54:33;;;;;;;11.52;5.00;;;8.60;99.90;;;;;;4958707;28;20165;-79
2022/04/21 00:57:00;;;;;;;;;;;8.50;99.90;;;;;;4991088;28;20057;-79
2022/04/21 00:59:26;;;;;;;10.13;4.90;;;8.40;99.90;;;;;;4974163;28;20000;-79
2022/04/21 01:04:39;;;;;;;11.50;5.10;;;8.30;99.90;;;;;;4991084;28;20053;-79
2022/04/21 01:07:13;;;;;;;11.15;5.53;;;8.30;99.90;;;;;;4995428;28;20092;-79
2022/04/21 01:09:40;;;;;;;11.57;5.38;;;8.30;99.90;;;;;;4977909;28;20134;-78
2022/04/21 01:12:09;;;;;;;10.13;5.10;;;8.30;99.90;;;;;;4978394;28;20056;-79
2022/04/21 01:14:39;;;;;;;14.35;5.90;;;8.30;99.90;;;;;;4978161;28;20093;-79
2022/04/21 01:17:05;;;;;;;9.93;5.47;;;8.30;99.90;;;;;;4995128;28;20061;-79
2022/04/21 01:19:31;;;;;;;11.50;5.75;;;8.30;99.90;;;;;;4995567;28;20398;-79
2022/04/21 01:21:57;;;;;;;12.27;5.40;;;8.20;99.90;;;;;;4992522;28;20310;-79
2022/04/21 01:24:23;;;;;;;12.75;5.82;;;8.20;99.90;;;;;;4994498;28;20849;-79
2022/04/21 01:26:49;;;;;;;;;;;8.20;99.90;;;;;;4978373;28;20054;-79
2022/04/21 01:29:15;;;;;;;9.60;5.28;;;8.10;99.90;;;;;;4978131;28;19925;-79
2022/04/21 01:31:41;;;;;;;11.90;5.70;;;8.10;99.90;;;;;;4994798;28;20081;-79
2022/04/21 01:34:07;;;;;;;11.32;5.75;;;8.10;99.90;;;;;;4994176;28;20056;-79
2022/04/21 01:36:32;;;;;;;9.63;5.25;;;8.10;99.90;;;;;;4993905;28;20132;-79
2022/04/21 01:41:42;;;;;;;13.25;5.75;;;7.90;99.90;;;;;;4987978;28;20049;-79
2022/04/21 01:44:07;;;;;;;10.18;5.53;;;7.70;99.90;;;;;;4994047;28;20372;-79
2022/04/21 01:46:33;;;;;;;10.77;5.60;;;7.70;99.90;;;;;;4994712;28;20048;-79
2022/04/21 01:48:59;;;;;;;11.82;6.38;;;7.50;99.90;;;;;;4962017;28;20046;-79
2022/04/21 01:51:24;;;;;;;12.02;5.63;;;7.70;99.90;;;;;;4994600;28;20513;-79
2022/04/21 01:53:50;;;;;;;10.50;5.82;;;7.50;99.90;;;;;;4968831;28;20042;-79
2022/04/21 01:56:16;;;;;;;12.07;6.07;;;7.50;99.90;;;;;;4968915;28;20680;-79
2022/04/21 01:58:42;;;;;;;12.45;6.45;;;7.60;99.90;;;;;;4976254;28;20141;-79
2022/04/21 02:01:08;;;;;;;13.82;6.53;;;7.70;99.90;;;;;;4974768;28;20145;-79
2022/04/21 02:03:34;;;;;;;10.18;5.80;;;7.70;99.90;;;;;;4995497;28;20053;-79
2022/04/21 02:06:00;;;;;;;15.38;6.35;;;7.80;99.90;;;;;;4994663;28;20833;-79
2022/04/21 02:08:27;;;;;;;13.38;5.80;;;7.90;99.90;;;;;;4995002;28;20053;-79
2022/04/21 02:10:53;;;;;;;12.10;6.80;;;7.90;99.90;;;;;;4978772;28;20122;-79
2022/04/21 02:13:19;;;;;;;9.98;5.88;;;8.30;99.90;;;;;;4995341;28;20061;-79
2022/04/21 02:15:45;;;;;;;11.98;6.72;;;8.00;99.90;;;;;;4993991;28;20380;-78
2022/04/21 02:18:11;;;;;;;14.38;6.55;;;7.90;99.90;;;;;;4994829;28;20072;-79
2022/04/21 02:20:37;;;;;;;12.40;6.78;;;7.90;99.90;;;;;;4995061;28;20049;-79
2022/04/21 02:23:03;;;;;;;14.25;6.15;;;7.90;99.90;;;;;;4994075;28;20653;-79
2022/04/21 02:25:28;;;;;;;14.02;6.95;;;7.90;99.90;;;;;;4995206;28;20065;-79
2022/04/21 02:27:54;;;;;;;12.52;6.30;;;7.80;99.90;;;;;;4978078;28;20107;-79
2022/04/21 02:30:20;;;;;;;17.80;8.13;;;7.80;99.90;;;;;;4978593;28;20395;-80
2022/04/21 02:32:47;;;;;;;13.75;6.65;;;7.80;99.90;;;;;;4994842;28;20487;-79
2022/04/21 02:35:14;;;;;;;11.07;6.18;;;7.80;99.90;;;;;;4995328;28;20537;-79
2022/04/21 02:37:45;;;;;;;10.68;5.82;;;7.90;99.90;;;;;;4994242;28;20053;-79
2022/04/21 02:40:12;;;;;;;12.15;6.75;;;7.80;99.90;;;;;;4995101;28;20494;-79
2022/04/21 02:42:38;;;;;;;13.50;6.60;;;7.80;99.90;;;;;;4994793;28;20037;-79
2022/04/21 02:45:12;;;;;;;11.57;6.72;;;7.80;99.90;;;;;;4993563;28;20050;-79
2022/04/21 02:47:40;;;;;;;10.85;6.40;;;7.80;99.90;;;;;;4994813;28;20427;-79
2022/04/21 02:50:06;;;;;;;11.07;6.55;;;8.30;99.90;;;;;;4994649;28;20270;-79
2022/04/21 02:52:39;;;;;;;15.43;6.72;;;7.90;99.90;;;;;;4974625;28;20066;-79
2022/04/21 02:57:50;;;;;;;14.20;7.00;;;7.90;99.90;;;;;;4993812;28;20057;-79
2022/04/21 03:00:16;;;;;;;;;;;8.00;99.90;;;;;;4993649;28;20050;-79
2022/04/21 03:02:42;;;;;;;11.38;6.38;;;8.00;99.90;;;;;;4994503;28;19922;-79
2022/04/21 03:05:08;;;;;;;14.50;7.60;;;8.00;99.90;;;;;;4961913;28;20123;-79
2022/04/21 03:07:34;;;;;;;11.27;6.63;;;7.90;99.90;;;;;;4994057;28;20069;-79
2022/04/21 03:10:00;;;;;;;12.20;6.95;;;7.90;99.90;;;;;;4978086;28;20345;-80
2022/04/21 03:12:27;;;;;;;15.00;6.57;;;8.00;99.90;;;;;;4978097;28;20065;-79
2022/04/21 03:14:55;;;;;;;10.82;6.63;;;8.00;99.90;;;;;;4992327;28;20042;-79
2022/04/21 03:17:21;;;;;;;12.60;6.80;;;7.90;99.90;;;;;;4994401;28;20080;-80
2022/04/21 03:19:47;;;;;;;13.32;7.22;;;7.90;99.90;;;;;;4994593;28;20042;-79
2022/04/21 03:25:02;;;;;;;13.07;6.95;;;7.90;99.90;;;;;;4993730;28;20088;-79
2022/04/21 03:27:29;;;;;;;10.90;6.75;;;7.90;99.90;;;;;;4993790;28;20050;-79
2022/04/21 03:29:55;;;;;;;12.15;7.18;;;7.90;99.90;;;;;;4976687;28;20061;-79
2022/04/21 03:32:21;;;;;;;11.00;6.63;;;7.80;99.90;;;;;;4994020;28;20509;-77
2022/04/21 03:34:47;;;;;;;11.70;6.90;;;7.90;99.90;;;;;;4994077;28;20046;-76
2022/04/21 03:37:14;;;;;;;16.35;7.07;;;7.80;99.90;;;;;;4976538;28;20041;-77
2022/04/21 03:39:41;;;;;;;14.65;7.20;;;7.70;99.90;;;;;;4978147;28;20507;-77
2022/04/21 03:42:17;;;;;;;13.95;7.30;;;7.70;99.90;;;;;;4976835;28;20053;-77
2022/04/21 03:44:43;;;;;;;13.48;7.15;;;7.60;99.90;;;;;;4992858;28;20069;-77
2022/04/21 03:47:08;;;;;;;13.25;7.07;;;7.60;99.90;;;;;;4993350;28;20045;-77
2022/04/21 03:49:34;;;;;;;13.38;7.10;;;7.60;99.90;;;;;;4978026;28;20056;-77
2022/04/21 03:52:00;;;;;;;10.75;6.70;;;7.50;99.90;;;;;;4993190;28;20061;-76
2022/04/21 03:54:26;;;;;;;15.80;7.70;;;7.50;99.90;;;;;;4977120;28;20264;-77
2022/04/21 03:56:53;;;;;;;12.65;7.35;;;7.50;99.90;;;;;;4993091;28;20117;-76
2022/04/21 03:59:21;;;;;;;12.45;7.13;;;7.50;99.90;;;;;;4992241;28;20057;-76
2022/04/21 04:01:47;;;;;;;14.30;8.23;;;7.50;99.90;;;;;;4993752;28;20054;-77
2022/04/21 04:04:13;;;;;;;13.27;7.45;;;7.50;99.90;;;;;;4992028;28;20124;-77
2022/04/21 04:12:11;;;;;;;15.23;8.02;;;7.30;99.90;;;;;;4973339;28;20097;-77
2022/04/21 04:14:38;;;;;;;14.35;8.10;;;7.30;99.90;;;;;;4985673;28;20053;-77
2022/04/21 04:17:06;;;;;;;13.70;7.68;;;7.40;99.90;;;;;;4975601;28;20136;-77
2022/04/21 04:19:33;;;;;;;16.10;8.25;;;7.30;99.90;;;;;;4991962;28;20539;-77
2022/04/21 04:21:58;;;;;;;15.23;8.18;;;7.40;99.90;;;;;;4992278;28;20487;-77
2022/04/21 04:24:24;;;;;;;13.68;7.95;;;7.30;99.90;;;;;;4992036;28;20041;-77
2022/04/21 04:26:50;;;;;;;13.80;7.55;;;7.40;99.90;;;;;;4993177;28;20082;-77
2022/04/21 04:29:22;;;;;;;21.85;8.27;;;7.30;99.90;;;;;;4991795;28;20042;-77
2022/04/21 04:31:49;;;;;;;17.63;8.45;;;7.30;99.90;;;;;;4962012;28;20048;-77
2022/04/21 04:34:15;;;;;;;14.98;7.38;;;7.30;99.90;;;;;;4976589;28;20108;-76
2022/04/21 04:36:41;;;;;;;12.40;7.38;;;7.20;99.90;;;;;;4977118;28;20053;-77
2022/04/21 04:39:07;;;;;;;13.95;7.50;;;7.20;99.90;;;;;;4991827;28;20061;-77
2022/04/21 04:44:17;;;;;;;14.50;7.95;;;7.10;99.90;;;;;;4978047;28;20246;-77
2022/04/21 04:46:43;;;;;;;17.92;7.95;;;7.10;99.90;;;;;;4960492;28;20499;-76
2022/04/21 04:49:10;;;;;;;12.88;7.65;;;7.10;99.90;;;;;;4960563;28;20517;-77
2022/04/21 04:51:41;;;;;;;15.27;8.15;;;7.00;99.90;;;;;;4993020;28;20487;-77
2022/04/21 04:54:08;;;;;;;15.50;7.93;;;7.00;99.90;;;;;;4975855;28;20049;-77
2022/04/21 04:56:34;;;;;;;16.65;8.27;;;7.00;99.90;;;;;;4993182;28;20399;-78
2022/04/21 04:59:00;;;;;;;14.18;7.47;;;7.00;99.90;;;;;;4975502;28;20111;-78
2022/04/21 05:01:35;;;;;;;17.27;8.20;;;7.00;99.90;;;;;;4988400;28;20529;-78
2022/04/21 05:04:06;;;;;;;16.65;8.00;;;7.00;99.90;;;;;;4971723;28;20054;-78
2022/04/21 05:06:45;;;;;;;15.23;7.72;;;7.00;99.90;;;;;;4992464;28;20102;-78
2022/04/21 05:09:13;;;;;;;15.57;7.90;;;7.00;99.90;;;;;;4991606;28;20421;-80
2022/04/21 05:11:41;;;;;;;18.02;7.93;;;7.00;99.90;;;;;;4992433;28;20054;-80
2022/04/21 05:14:07;;;;;;;14.05;8.00;;;7.00;99.90;;;;;;4991560;28;20046;-79
2022/04/21 05:16:36;;;;;;;12.27;7.45;;;6.90;99.90;;;;;;4992490;28;20053;-80
2022/04/21 05:19:03;;;;;;;14.57;8.15;;;7.00;99.90;;;;;;4992031;28;20089;-79
2022/04/21 05:21:30;;;;;;;16.08;8.48;;;7.00;99.90;;;;;;4992447;28;20058;-80
2022/04/21 05:23:57;;;;;;;13.63;7.50;;;7.00;99.90;;;;;;4992419;28;20191;-80
2022/04/21 05:26:25;;;;;;;14.32;8.20;;;7.00;99.90;;;;;;4991486;28;20504;-80
2022/04/21 05:28:52;;;;;;;15.30;8.23;;;7.00;99.90;;;;;;4991618;28;20092;-80
2022/04/21 05:31:18;;;;;;;15.13;8.10;;;7.00;99.90;;;;;;4990947;28;20054;-81
2022/04/21 05:33:44;;;;;;;16.40;8.18;;;7.10;99.90;;;;;;4975739;28;20092;-80
2022/04/21 05:36:10;;;;;;;12.80;7.85;;;7.10;99.90;;;;;;4975182;28;20057;-80
2022/04/21 05:38:37;;;;;;;;;;;7.10;99.90;;;;;;4991949;28;20042;-80
2022/04/21 05:41:03;;;;;;;14.47;7.30;;;7.20;99.90;;;;;;4992516;28;20160;-80
2022/04/21 05:43:34;;;;;;;14.30;7.38;;;7.20;99.90;;;;;;4972466;28;20047;-81
2022/04/21 05:46:00;;;;;;;18.13;8.43;;;7.30;99.90;;;;;;4972223;28;20047;-80
2022/04/21 05:48:26;;;;;;;14.15;7.85;;;7.40;99.90;;;;;;4975381;28;20064;-81
2022/04/21 05:50:53;;;;;;;19.67;8.00;;;7.40;99.90;;;;;;4991622;28;20483;-81
2022/04/21 05:53:23;;;;;;;13.55;7.10;;;7.50;99.90;;;;;;4993945;28;20487;-81
2022/04/21 05:55:50;;;;;;;13.07;7.57;;;7.50;99.90;;;;;;4979494;28;20559;-81
2022/04/21 05:58:16;;;;;;;11.77;6.97;;;7.60;99.90;;;;;;4978325;28;20045;-81
2022/04/21 06:00:42;;;;;;;12.40;6.75;;;7.90;99.90;;;;;;4978783;28;20053;-80
2022/04/21 06:03:08;;;;;;;16.52;7.78;;;7.80;99.90;;;;;;4994868;28;20038;-80
2022/04/21 06:05:33;;;;;;;13.13;6.93;;;7.80;99.90;;;;;;5011616;28;20042;-82
2022/04/21 06:07:59;;;;;;;12.00;6.97;;;7.90;99.90;;;;;;4978686;28;20534;-81
2022/04/21 06:10:25;;;;;;;12.57;6.95;;;8.00;99.90;;;;;;4977906;28;20052;-81
2022/04/21 06:12:50;;;;;;;14.75;7.22;;;8.10;99.90;;;;;;4978846;28;20052;-81
2022/04/21 06:15:16;;;;;;;11.32;6.40;;;8.10;99.90;;;;;;4961677;28;20518;-80
2022/04/21 06:17:42;;;;;;;11.90;6.35;;;8.10;99.90;;;;;;4962718;28;20133;-81
2022/04/21 06:20:09;;;;;;;14.05;6.40;;;8.20;99.90;;;;;;4994460;28;20045;-81
2022/04/21 06:22:35;;;;;;;9.88;5.50;;;8.30;99.90;;;;;;4993555;28;20111;-81
2022/04/21 06:25:01;;;;;;;10.70;5.60;;;8.60;99.90;;;;;;4994396;28;20046;-81
2022/04/21 06:27:27;;;;;;;10.02;5.25;;;8.50;99.90;;;;;;4994249;28;20042;-81
2022/04/21 06:29:52;;;;;;;13.65;5.50;;;8.50;99.90;;;;;;4994581;28;20386;-81
2022/04/21 06:32:18;;;;;;;11.63;5.03;;;8.60;99.90;;;;;;4993884;28;20080;-81
2022/04/21 06:34:44;;;;;;;9.43;5.07;;;8.60;99.90;;;;;;4995178;28;20056;-81
2022/04/21 06:37:10;;;;;;;10.32;5.25;;;8.70;99.90;;;;;;4978285;28;20053;-80
2022/04/21 06:39:36;;;;;;;15.98;4.72;;;8.80;99.90;;;;;;4993994;28;20084;-81
2022/04/21 06:42:01;;;;;;;12.68;4.90;;;8.90;99.90;;;;;;4975329;28;20050;-81
2022/04/21 06:49:55;;;;;;;8.50;4.15;;;9.00;99.90;;;;;;4994763;28;20058;-80
2022/04/21 06:52:21;;;;;;;12.75;4.63;;;9.00;99.90;;;;;;4992758;28;20057;-81
2022/04/21 06:54:47;;;;;;;8.63;4.43;;;9.10;99.90;;;;;;4995096;28;20056;-81
2022/04/21 06:57:13;;;;;;;12.05;4.68;;;9.20;99.90;;;;;;4993755;28;20065;-81
2022/04/21 06:59:39;;;;;;;9.40;4.00;;;9.20;99.90;;;;;;4977647;28;20061;-81
2022/04/21 07:02:05;;;;;;;8.90;3.95;;;9.30;99.90;;;;;;4993979;28;20148;-80
2022/04/21 07:04:31;;;;;;;9.65;3.92;;;9.40;99.90;;;;;;4961373;28;20045;-81
2022/04/21 07:06:57;;;;;;;7.60;3.63;;;9.40;99.90;;;;;;4978119;28;20133;-80
2022/04/21 07:09:23;;;;;;;9.65;4.20;;;9.50;99.90;;;;;;4992806;28;20129;-81
2022/04/21 07:11:49;;;;;;;8.02;3.83;;;9.50;99.90;;;;;;4993115;28;20701;-81
2022/04/21 07:14:14;;;;;;;9.55;4.03;;;9.60;99.90;;;;;;4992699;28;20046;-80
2022/04/21 07:16:40;;;;;;;9.50;3.92;;;9.60;99.90;;;;;;4993925;28;20042;-81
2022/04/21 07:19:06;;;;;;;7.50;3.60;;;9.70;99.90;;;;;;4977978;28;20505;-81
2022/04/21 07:21:31;;;;;;;10.88;3.95;;;9.80;99.90;;;;;;4960880;28;20042;-81
2022/04/21 07:23:57;;;;;;;7.38;3.80;;;9.80;99.90;;;;;;4974263;28;20061;-81
2022/04/21 07:26:23;;;;;;;13.82;3.85;;;9.90;99.90;;;;;;4957697;28;20054;-81
2022/04/21 07:28:49;;;;;;;6.53;3.75;;;9.90;99.90;;;;;;4958541;28;20050;-82
2022/04/21 07:31:15;;;;;;;6.75;3.75;;;10.00;99.90;;;;;;4972987;28;20045;-81
2022/04/21 07:33:41;;;;;;;6.45;3.45;;;10.10;99.90;;;;;;4957961;28;20053;-81
2022/04/21 07:36:07;;;;;;;6.93;3.33;;;10.10;99.90;;;;;;4989461;28;20056;-81
2022/04/21 07:38:34;;;;;;;8.27;3.47;;;10.20;99.90;;;;;;4957992;28;20103;-81
2022/04/21 07:41:00;;;;;;;6.60;3.50;;;10.30;99.90;;;;;;4989871;28;20046;-81
2022/04/21 07:43:26;;;;;;;7.57;3.28;;;10.30;99.90;;;;;;4990985;28;20442;-81
2022/04/21 07:45:52;;;;;;;7.82;3.33;;;10.40;99.90;;;;;;4990791;28;20040;-81
2022/04/21 07:48:18;;;;;;;9.15;3.38;;;10.40;99.90;;;;;;4991564;28;20383;-81
2022/04/21 07:50:44;;;;;;;7.85;3.35;;;10.50;99.90;;;;;;4976250;28;20124;-81
2022/04/21 07:53:15;;;;;;;7.65;3.92;;;10.50;99.90;;;;;;4991303;28;20049;-79
2022/04/21 07:55:46;;;;;;;5.80;2.90;;;10.60;99.90;;;;;;4975967;28;20041;-81
2022/04/21 07:58:13;;;;;;;7.80;3.10;;;10.60;99.90;;;;;;4991584;28;20054;-81
2022/04/21 08:00:40;;;;;;;6.25;2.80;;;10.70;99.90;;;;;;5002590;28;20054;-81
2022/04/21 08:03:07;;;;;;;7.53;2.85;;;10.80;99.90;;;;;;4974801;28;20179;-82
2022/04/21 08:05:33;;;;;;;6.90;3.17;;;10.90;99.90;;;;;;4989083;28;20049;-81
2022/04/21 08:07:59;;;;;;;5.97;3.22;;;10.90;99.90;;;;;;4975208;28;20092;-81
2022/04/21 08:10:27;;;;;;;;;;;11.00;99.90;;;;;;4975742;28;20045;-81
2022/04/21 08:12:54;;;;;;;5.75;2.80;;;11.10;99.90;;;;;;4973059;28;20015;-82
2022/04/21 08:15:25;;;;;;;6.00;2.92;;;11.10;99.90;;;;;;4989947;28;20061;-81
2022/04/21 08:17:52;;;;;;;6.50;2.80;;;11.20;99.90;;;;;;4972587;28;20107;-81
2022/04/21 08:20:18;;;;;;;4.70;2.47;;;11.30;99.00;;;;;;4976645;28;20049;-82
2022/04/21 08:22:46;;;;;;;6.90;2.72;;;11.50;97.60;;;;;;4992156;28;20180;-79
2022/04/21 08:33:26;;;;;;;6.00;2.70;;;11.80;95.40;;;;;;4992381;28;20061;-84
2022/04/21 08:35:57;;;;;;;6.63;2.85;;;11.90;94.60;;;;;;4992999;28;20042;-83
2022/04/21 08:38:27;;;;;;;5.65;2.63;;;12.00;92.40;;;;;;4976059;28;20495;-84
2022/04/21 08:40:58;;;;;;;8.82;2.85;;;12.00;91.50;;;;;;4976642;28;20107;-83
2022/04/21 08:43:27;;;;;;;11.57;3.13;;;12.10;90.60;;;;;;4991932;28;20514;-84
2022/04/21 08:45:54;;;;;;;8.55;3.00;;;12.20;90.90;;;;;;4992067;28;20052;-84
2022/04/21 08:48:23;;;;;;;7.70;3.15;;;12.30;90.70;;;;;;4992521;28;20088;-83
2022/04/21 08:50:49;;;;;;;5.57;2.78;;;12.30;91.00;;;;;;4992449;28;20041;-83
2022/04/21 08:53:19;;;;;;;6.30;3.10;;;12.40;90.80;;;;;;4992133;28;20053;-84
2022/04/21 08:55:45;;;;;;;9.30;3.30;;;12.50;90.00;;;;;;4973359;28;20057;-84
2022/04/21 08:58:14;;;;;;;20.38;3.25;;;12.60;90.60;;;;;;4976351;28;20501;-84
2022/04/21 09:00:42;;;;;;;8.27;2.80;;;12.70;90.10;;;;;;4991376;28;20053;-84
2022/04/21 09:03:09;;;;;;;5.18;2.55;;;12.70;90.30;;;;;;4976043;28;20062;-83
2022/04/21 09:05:35;;;;;;;5.35;2.92;;;12.70;90.30;;;;;;4991757;28;20050;-77
2022/04/21 09:08:01;;;;;;;4.72;2.70;;;12.70;90.60;;;;;;4991677;28;20414;-77
2022/04/21 09:10:28;;;;;;;;;;;12.80;91.40;;;;;;4976526;28;20046;-81
2022/04/21 09:12:56;;;;;;;10.30;3.30;;;12.80;92.30;;;;;;4991768;28;19964;-87
2022/04/21 09:15:33;;;;;;;6.18;2.78;;;12.90;92.00;;;;;;4991514;28;20100;-82
2022/04/21 09:18:08;;;;;;;5.65;2.80;;;13.00;91.50;;;;;;4975364;28;20084;-81
2022/04/21 09:20:35;;;;;;;11.68;3.10;;;13.20;90.90;;;;;;4990889;28;20050;-75
2022/04/21 09:23:05;;;;;;;6.07;2.42;;;13.30;90.70;;;;;;4986565;28;20042;-76
2022/04/21 09:25:51;;;;;;;5.70;2.88;;;13.40;89.20;;;;;;4984747;28;20435;-76
2022/04/21 09:28:25;;;;;;;6.80;2.97;;;13.40;90.00;;;;;;4977894;28;20805;-76
2022/04/21 09:30:52;;;;;;;6.07;2.80;;;13.50;88.40;;;;;;4994689;28;20049;-76
2022/04/21 09:33:30;;;;;;;5.28;2.70;;;13.50;88.40;;;;;;4995557;28;20053;-77
2022/04/21 09:36:00;;;;;;;5.30;3.20;;;13.60;88.00;;;;;;4996019;28;20050;-75
2022/04/21 09:38:27;;;;;;;5.47;2.55;;;13.60;88.00;;;;;;4978370;28;20129;-77
2022/04/21 09:40:54;;;;;;;10.82;3.25;;;13.60;89.10;;;;;;4995870;28;20053;-76
2022/04/21 09:43:28;;;;;;;4.00;2.60;;;13.70;87.40;;;;;;4978233;28;20042;-77
2022/04/21 09:46:09;;;;;;;5.57;3.10;;;13.80;84.80;;;;;;4991901;28;20042;-77
2022/04/21 09:48:35;;;;;;;5.60;2.50;;;13.90;84.00;;;;;;4992874;28;20057;-77
2022/04/21 09:51:12;;;;;;;9.63;3.10;;;14.00;84.40;;;;;;4994622;28;20045;-77
2022/04/21 09:53:58;;;;;;;5.38;2.97;;;14.10;81.60;;;;;;4993920;28;20677;-77
2022/04/21 09:56:39;;;;;;;5.18;2.85;;;14.10;81.70;;;;;;4992003;28;20101;-77
2022/04/21 09:59:08;;;;;;;9.57;3.55;;;14.10;79.50;;;;;;4994896;28;20076;-77
2022/04/21 10:01:37;;;;;;;6.30;3.15;;;14.20;81.70;;;;;;4979037;28;20050;-75
2022/04/21 10:04:07;;;;;;;8.32;3.20;;;14.30;81.90;;;;;;4994692;28;20045;-76
2022/04/21 10:06:35;;;;;;;5.28;2.72;;;14.30;80.80;;;;;;4978079;28;20081;-76
2022/04/21 10:09:01;;;;;;;7.65;3.20;;;14.30;78.60;;;;;;4976062;28;20136;-76
2022/04/21 10:11:28;;;;;;;6.35;3.05;;;14.30;77.70;;;;;;4961806;28;20046;-75
2022/04/21 10:13:56;;;;;;;5.65;2.88;;;14.20;78.20;;;;;;4995155;28;20053;-75
2022/04/21 10:16:23;;;;;;;9.05;3.30;;;14.30;81.20;;;;;;4977518;28;20050;-77
2022/04/21 10:18:51;;;;;;;8.95;3.13;;;14.40;82.00;;;;;;4994275;28;20072;-76
2022/04/21 10:21:25;;;;;;;11.18;3.13;;;14.50;81.90;;;;;;4990090;28;20092;-77
2022/04/21 10:23:52;;;;;;;6.78;2.90;;;14.60;81.20;;;;;;4994571;28;20124;-77
2022/04/21 10:26:37;;;;;;;7.85;2.92;;;14.70;80.50;;;;;;4984398;28;20396;-77
2022/04/21 10:29:21;;;;;;;8.15;2.80;;;14.80;77.20;;;;;;4978373;28;20050;-77
2022/04/21 10:32:03;;;;;;;5.70;2.90;;;14.80;73.80;;;;;;5006867;28;20050;-76
2022/04/21 10:34:31;;;;;;;5.50;3.05;;;14.80;74.80;;;;;;4992671;28;20046;-77
2022/04/21 10:37:32;;;;;;;6.13;3.30;;;14.80;75.60;;;;;;4992864;28;20516;-77
2022/04/21 10:40:14;;;;;;;5.00;3.00;;;15.00;74.80;;;;;;4976538;28;20054;-76
2022/04/21 10:42:52;;;;;;;5.40;2.88;;;15.10;73.80;;;;;;4992859;28;20112;-77
2022/04/21 10:45:31;;;;;;;6.72;3.55;;;15.30;74.00;;;;;;4992220;28;20042;-77
2022/04/21 10:48:08;;;;;;;7.20;3.70;;;15.50;74.70;;;;;;5008408;28;20057;-76
2022/04/21 10:50:42;;;;;;;7.07;2.92;;;15.70;73.10;;;;;;4994226;28;20552;-77
2022/04/21 10:58:47;;;;;;;6.03;2.70;;;15.90;72.00;;;;;;4974182;28;20058;-76
2022/04/21 11:01:22;;;;;;;5.38;3.00;;;15.90;69.50;;;;;;4988377;28;20133;-76
2022/04/21 11:04:08;;;;;;;4.97;3.00;;;16.00;69.10;;;;;;4993573;28;20495;-76
2022/04/21 11:06:48;;;;;;;8.35;3.33;;;16.00;69.30;;;;;;4993371;28;20050;-76
2022/04/21 11:09:44;;;;;;;6.00;3.40;;;16.00;69.70;;;;;;4993206;28;20476;-76
2022/04/21 11:12:13;;;;;;;7.35;3.05;;;16.20;70.50;;;;;;4973595;28;20058;-77
2022/04/21 11:14:39;;;;;;;5.55;3.03;;;16.30;69.50;;;;;;5010453;28;20049;-77
2022/04/21 11:17:09;;;;;;;4.05;2.17;;;16.40;68.10;;;;;;4978456;28;20384;-77
2022/04/21 11:19:34;;;;;;;3.90;1.98;;;16.40;65.10;;;;;;4993559;28;20081;-77
2022/04/21 11:22:05;;;;;;;4.90;2.90;;;16.40;63.60;;;;;;4976285;28;20088;-77
2022/04/21 11:24:56;;;;;;;5.38;3.55;;;16.50;64.80;;;;;;4990480;28;20100;-77
2022/04/21 11:27:22;;;;;;;7.35;3.40;;;16.60;65.30;;;;;;4993424;28;20049;-76
2022/04/21 11:29:49;;;;;;;5.60;2.72;;;16.70;65.20;;;;;;4988953;28;20361;-75
2022/04/21 11:32:15;;;;;;;;;;;16.70;62.60;;;;;;4990157;28;20490;-78
2022/04/21 11:34:42;;;;;;;7.00;3.38;;;16.70;63.70;;;;;;4974549;28;19928;-77
2022/04/21 11:37:07;;;;;;;7.75;3.40;;;16.90;64.00;;;;;;4986917;28;20061;-75
2022/04/21 11:39:38;;;;;;;5.38;3.30;;;17.00;64.20;;;;;;4973275;28;20057;-75
2022/04/21 11:42:04;;;;;;;6.65;3.08;;;17.10;64.60;;;;;;4958328;28;20050;-75
2022/04/21 11:44:30;;;;;;;6.85;3.53;;;17.30;64.20;;;;;;4989562;28;20113;-75
2022/04/21 11:46:55;;;;;;;;;;;17.40;65.20;;;;;;4991149;28;20054;-75
2022/04/21 11:49:21;;;;;;;19.15;3.78;;;17.60;64.10;;;;;;4980710;28;19932;-75
2022/04/21 11:51:53;;;;;;;9.50;3.65;;;17.80;64.10;;;;;;4992956;28;20124;-76
2022/04/21 11:54:19;;;;;;;7.05;3.83;;;18.00;63.50;;;;;;4988910;28;20121;-75
2022/04/21 11:56:51;;;;;;;9.50;3.67;;;18.10;61.30;;;;;;4976578;28;20054;-75
2022/04/21 11:59:17;;;;;;;6.63;3.22;;;18.30;61.30;;;;;;4976461;28;20100;-75
2022/04/21 12:07:18;;;;;;;7.68;3.15;;;19.30;63.40;;;;;;4979413;28;20057;-75
2022/04/21 12:09:50;;;;;;;7.15;3.25;;;19.60;60.70;;;;;;4992658;28;20058;-76
2022/04/21 12:12:20;;;;;;;7.10;3.33;;;19.60;58.90;;;;;;4993087;28;20049;-76
2022/04/21 12:14:46;;;;;;;5.47;3.00;;;19.70;60.50;;;;;;4992111;28;20053;-75
2022/04/21 12:17:12;;;;;;;;;;;19.90;58.90;;;;;;4993495;28;20096;-76
2022/04/21 12:19:44;;;;;;;6.10;2.53;;;20.00;59.10;;;;;;4976845;28;19929;-76
2022/04/21 12:22:18;;;;;;;8.30;3.33;;;20.20;58.40;;;;;;4976909;28;20054;-75
2022/04/21 12:24:44;;;;;;;8.18;3.33;;;20.30;56.90;;;;;;4992546;28;20046;-77
2022/04/21 12:27:22;;;;;;;5.70;3.00;;;20.20;57.50;;;;;;4993065;28;20056;-77
2022/04/21 12:29:54;;;;;;;5.32;3.17;;;20.00;55.80;;;;;;4991961;28;20092;-77
2022/04/21 12:32:21;;;;;;;7.40;3.10;;;20.00;57.80;;;;;;4992868;28;20042;-77
2022/04/21 12:34:48;;;;;;;6.95;3.38;;;20.00;58.10;;;;;;4991987;28;20053;-80
2022/04/21 12:37:14;;;;;;;7.40;3.40;;;20.10;58.10;;;;;;4991191;28;20041;-80
2022/04/21 12:39:39;;;;;;;;;;;20.30;58.00;;;;;;4989245;28;20739;-75
2022/04/21 12:42:05;;;;;;;10.52;3.60;;;20.70;58.40;;;;;;4991365;28;19995;-75
2022/04/21 12:44:31;;;;;;;5.20;3.00;;;20.70;55.90;;;;;;4990212;28;20057;-76
2022/04/21 12:47:00;;;;;;;9.95;3.40;;;20.60;55.20;;;;;;4973983;28;21627;-76
2022/04/21 12:49:49;;;;;;;6.95;3.13;;;20.80;56.20;;;;;;4975476;28;20493;-76
2022/04/21 12:52:15;;;;;;;7.00;2.97;;;21.30;57.30;;;;;;4990018;28;20049;-76
2022/04/21 12:54:47;;;;;;;7.35;3.05;;;21.60;56.60;;;;;;4975479;28;20165;-76
2022/04/21 12:57:14;;;;;;;5.57;2.85;;;22.00;55.40;;;;;;4976599;28;20057;-76
2022/04/21 12:59:40;;;;;;;5.18;3.17;;;22.30;54.50;;;;;;4990732;28;20058;-76
2022/04/21 13:02:06;;;;;;;10.18;3.30;;;22.30;52.10;;;;;;4995147;28;20060;-76
2022/04/21 13:04:32;;;;;;;14.45;3.72;;;21.90;50.70;;;;;;4992911;28;20042;-77
2022/04/21 13:06:58;;;;;;;7.68;3.20;;;21.30;50.90;;;;;;4993051;28;20038;-76
2022/04/21 13:09:23;;;;;;;6.35;3.50;;;21.00;51.80;;;;;;4993624;28;20058;-76
2022/04/21 13:11:49;;;;;;;10.25;2.97;;;20.90;52.60;;;;;;4977071;28;20048;-76
2022/04/21 13:14:15;;;;;;;5.45;3.30;;;21.20;53.50;;;;;;4976739;28;20053;-76
2022/04/21 13:16:40;;;;;;;5.43;3.15;;;21.50;52.80;;;;;;4977119;28;20053;-76
2022/04/21 13:19:06;;;;;;;5.75;2.90;;;21.70;52.40;;;;;;4978236;28;20719;-76
2022/04/21 13:24:16;;;;;;;9.20;3.17;;;21.70;52.30;;;;;;4994136;28;20133;-76
2022/04/21 13:26:41;;;;;;;4.72;2.95;;;21.80;52.60;;;;;;5010883;28;20117;-76
2022/04/21 13:29:07;;;;;;;5.28;3.10;;;21.80;52.30;;;;;;4994313;28;20096;-76
2022/04/21 13:34:17;;;;;;;12.63;3.72;;;21.50;51.20;;;;;;4994942;28;20151;-76
2022/04/21 13:36:43;;;;;;;6.93;3.33;;;21.30;50.50;;;;;;4994026;28;20506;-76
2022/04/21 13:39:08;;;;;;;8.52;3.30;;;21.20;52.20;;;;;;4993831;28;20050;-76
2022/04/21 13:41:34;;;;;;;6.05;3.25;;;21.70;52.90;;;;;;4994883;28;20523;-77
2022/04/21 13:44:00;;;;;;;5.78;3.20;;;22.20;52.00;;;;;;5011445;28;20079;-76
2022/04/21 13:46:26;;;;;;;8.05;3.47;;;22.50;51.90;;;;;;4993269;28;20425;-76